Time;durP1;ratioP1;P1;durP2;ratioP2;P2;SDS_P1;SDS_P2;PMS_P1;PMS_P2;Temp;Humidity;BMP_temperature;BMP_pressure;BME280_temperature;BME280_humidity;BME280_pressure;Samples;Min_cycle;Max_cycle;Signal;HPM_P1;HPM_P2
2021/06/07 00:02:02;;;;;;;7.63;6.78;;;20.80;54.00;;;;;;5077582;28;20184;-84
2021/06/07 00:04:29;;;;;;;9.35;6.70;;;20.80;54.00;;;;;;5061040;28;20206;-83
2021/06/07 00:06:58;;;;;;;8.23;6.78;;;20.80;54.00;;;;;;5077623;28;20643;-85
2021/06/07 00:09:26;;;;;;;8.25;6.80;;;20.80;54.00;;;;;;5077455;28;20246;-84
2021/06/07 00:12:02;;;;;;;9.85;6.78;;;20.80;54.00;;;;;;5061891;28;20241;-84
2021/06/07 00:14:32;;;;;;;7.80;6.28;;;20.80;54.00;;;;;;5079598;28;20264;-85
2021/06/07 00:16:59;;;;;;;8.95;6.68;;;20.80;54.00;;;;;;5062533;28;20207;-84
2021/06/07 00:19:31;;;;;;;9.43;6.95;;;20.80;54.10;;;;;;5097138;28;20180;-83
2021/06/07 00:21:58;;;;;;;7.53;6.55;;;20.80;54.00;;;;;;5062410;28;20287;-85
2021/06/07 00:24:26;;;;;;;7.03;6.32;;;20.80;54.10;;;;;;5078988;28;20674;-85
2021/06/07 00:26:53;;;;;;;8.52;7.10;;;20.80;54.10;;;;;;5078422;28;20186;-84
2021/06/07 00:29:24;;;;;;;9.27;5.97;;;20.80;54.10;;;;;;5062559;28;20226;-84
2021/06/07 00:31:50;;;;;;;7.95;6.82;;;20.80;54.10;;;;;;5062149;28;20180;-85
2021/06/07 00:34:15;;;;;;;8.43;6.70;;;20.80;54.10;;;;;;5113167;28;20145;-84
2021/06/07 00:36:42;;;;;;;8.20;6.53;;;20.80;54.10;;;;;;5079752;28;20184;-84
2021/06/07 00:39:10;;;;;;;7.90;7.10;;;20.80;54.10;;;;;;5096255;28;20173;-85
2021/06/07 00:41:36;;;;;;;8.95;6.50;;;20.80;54.10;;;;;;5113310;28;20158;-85
2021/06/07 00:44:06;;;;;;;9.15;6.40;;;20.70;54.10;;;;;;5095746;28;20230;-85
2021/06/07 00:46:33;;;;;;;7.78;6.60;;;20.70;54.10;;;;;;5097706;28;20256;-84
2021/06/07 00:49:01;;;;;;;7.85;6.60;;;20.80;54.20;;;;;;5096418;28;20153;-84
2021/06/07 00:51:27;;;;;;;7.75;6.88;;;20.70;54.10;;;;;;5113049;28;20590;-85
2021/06/07 00:53:53;;;;;;;8.90;6.95;;;20.70;54.20;;;;;;5098856;28;20257;-84
2021/06/07 00:56:18;;;;;;;8.43;6.50;;;20.70;54.10;;;;;;5100159;28;20157;-84
2021/06/07 00:58:47;;;;;;;8.73;6.40;;;20.80;54.20;;;;;;5100249;28;20149;-85
2021/06/07 01:01:15;;;;;;;8.77;6.90;;;20.70;54.20;;;;;;5100555;28;20186;-85
2021/06/07 01:03:41;;;;;;;6.97;6.25;;;20.70;54.30;;;;;;5100187;28;20168;-85
2021/06/07 01:06:07;;;;;;;8.05;6.63;;;20.70;54.20;;;;;;5083496;28;20161;-85
2021/06/07 01:08:33;;;;;;;8.25;6.45;;;20.70;54.20;;;;;;5116685;28;20153;-83
2021/06/07 01:11:00;;;;;;;8.05;6.50;;;20.70;54.20;;;;;;5083591;28;20224;-84
2021/06/07 01:13:25;;;;;;;9.38;6.88;;;20.70;54.30;;;;;;5117103;28;20280;-85
2021/06/07 01:15:52;;;;;;;9.48;6.90;;;20.70;54.30;;;;;;5083588;28;20184;-85
2021/06/07 01:18:23;;;;;;;7.60;6.68;;;20.70;54.30;;;;;;5116688;28;20168;-83
2021/06/07 01:20:51;;;;;;;8.88;6.68;;;20.70;54.30;;;;;;5083428;28;20306;-84
2021/06/07 01:23:17;;;;;;;7.43;6.10;;;20.60;54.30;;;;;;5100522;28;20157;-84
2021/06/07 01:25:45;;;;;;;6.95;6.20;;;20.60;54.30;;;;;;5100171;28;20159;-85
2021/06/07 01:28:15;;;;;;;8.30;6.38;;;20.60;54.30;;;;;;5099148;28;20184;-84
2021/06/07 01:30:47;;;;;;;8.88;6.55;;;20.70;54.40;;;;;;5066055;28;20237;-84
2021/06/07 01:33:15;;;;;;;7.57;6.43;;;20.60;54.40;;;;;;5082322;28;20224;-84
2021/06/07 01:35:43;;;;;;;7.15;6.45;;;20.60;54.40;;;;;;5081905;28;20730;-83
2021/06/07 01:38:11;;;;;;;7.80;6.70;;;20.60;54.40;;;;;;5081789;28;20226;-84
2021/06/07 01:40:42;;;;;;;8.15;6.57;;;20.60;54.40;;;;;;5081418;28;20177;-84
2021/06/07 01:43:08;;;;;;;7.22;6.10;;;20.60;54.40;;;;;;5081952;28;20199;-84
2021/06/07 01:45:35;;;;;;;7.35;6.57;;;20.60;54.40;;;;;;5099795;28;20153;-85
2021/06/07 01:48:04;;;;;;;7.53;6.60;;;20.60;54.40;;;;;;5099535;28;20149;-85
2021/06/07 01:50:30;;;;;;;9.48;6.68;;;20.60;54.40;;;;;;5116653;28;20215;-84
2021/06/07 01:52:56;;;;;;;7.38;6.47;;;20.60;54.40;;;;;;5099450;28;20738;-84
2021/06/07 01:55:25;;;;;;;8.43;6.85;;;20.70;54.40;;;;;;5099827;28;20616;-84
2021/06/07 01:57:51;;;;;;;8.68;6.63;;;20.60;54.40;;;;;;5099950;28;20156;-84
2021/06/07 02:00:33;;;;;;;7.32;6.40;;;20.60;54.50;;;;;;5099162;28;20153;-84
2021/06/07 02:02:58;;;;;;;8.10;6.63;;;20.60;54.50;;;;;;5100606;28;20234;-84
2021/06/07 02:05:26;;;;;;;9.95;6.13;;;20.60;54.50;;;;;;5097748;28;20635;-85
2021/06/07 02:07:53;;;;;;;7.78;6.57;;;20.60;54.50;;;;;;5115780;27;20181;-83
2021/06/07 02:10:19;;;;;;;7.07;6.32;;;20.60;54.50;;;;;;5115894;28;20152;-84
2021/06/07 02:12:48;;;;;;;7.95;6.63;;;20.50;54.50;;;;;;5099708;28;20212;-85
2021/06/07 02:15:14;;;;;;;8.57;6.35;;;20.60;54.60;;;;;;5064889;28;20173;-84
2021/06/07 02:17:40;;;;;;;7.93;6.20;;;20.50;54.50;;;;;;5115563;27;20185;-83
2021/06/07 02:20:08;;;;;;;7.28;5.88;;;20.50;54.50;;;;;;5098717;28;20157;-85
2021/06/07 02:22:38;;;;;;;8.40;6.80;;;20.50;54.50;;;;;;5081377;28;20183;-85
2021/06/07 02:25:04;;;;;;;9.05;6.85;;;20.50;54.50;;;;;;5082266;28;20192;-85
2021/06/07 02:27:31;;;;;;;8.30;6.70;;;20.50;54.60;;;;;;5099606;28;20202;-84
2021/06/07 02:29:57;;;;;;;8.50;6.43;;;20.50;54.60;;;;;;5116026;28;20189;-83
2021/06/07 02:32:23;;;;;;;8.35;6.38;;;20.40;54.60;;;;;;5116002;27;20193;-84
2021/06/07 02:34:49;;;;;;;8.30;6.18;;;20.50;54.70;;;;;;5116145;28;20176;-84
2021/06/07 02:37:17;;;;;;;8.18;6.20;;;20.50;54.70;;;;;;5098574;28;20183;-85
2021/06/07 02:39:43;;;;;;;7.13;6.28;;;20.50;54.70;;;;;;5082649;28;20161;-84
2021/06/07 02:42:10;;;;;;;8.20;6.28;;;20.50;55.40;;;;;;5098125;28;20262;-85
2021/06/07 02:44:37;;;;;;;7.32;6.15;;;20.50;54.70;;;;;;5098745;28;20221;-84
2021/06/07 02:47:03;;;;;;;9.65;6.30;;;20.50;54.60;;;;;;5098683;28;20192;-84
2021/06/07 02:49:28;;;;;;;7.90;6.70;;;20.50;54.70;;;;;;5115470;28;20141;-84
2021/06/07 02:51:56;;;;;;;8.30;6.20;;;20.50;54.70;;;;;;5115347;28;20224;-83
2021/06/07 02:54:26;;;;;;;7.22;6.25;;;20.50;54.70;;;;;;5064013;28;20188;-85
2021/06/07 02:56:53;;;;;;;7.10;6.20;;;20.50;54.70;;;;;;5080263;28;20173;-83
2021/06/07 02:59:20;;;;;;;7.80;6.20;;;20.50;54.70;;;;;;5063968;28;20192;-84
2021/06/07 03:01:47;;;;;;;10.10;6.65;;;20.50;54.70;;;;;;5064561;28;20248;-84
2021/06/07 03:04:15;;;;;;;7.60;6.78;;;20.50;54.80;;;;;;5079972;28;20552;-84
2021/06/07 03:06:47;;;;;;;8.30;6.35;;;20.50;54.80;;;;;;5080293;28;20177;-85
2021/06/07 03:09:12;;;;;;;7.20;6.50;;;20.40;54.70;;;;;;5063616;28;20204;-85
2021/06/07 03:11:38;;;;;;;7.32;6.40;;;20.50;54.80;;;;;;5114808;28;20585;-84
2021/06/07 03:14:05;;;;;;;9.88;6.28;;;20.50;54.80;;;;;;5115218;28;20212;-85
2021/06/07 03:16:30;;;;;;;7.40;6.40;;;20.50;54.80;;;;;;5097609;28;20179;-85
2021/06/07 03:18:56;;;;;;;7.50;6.20;;;20.40;54.80;;;;;;5098335;28;20168;-85
2021/06/07 03:21:22;;;;;;;7.57;6.15;;;20.50;54.80;;;;;;5097504;28;20153;-84
2021/06/07 03:23:48;;;;;;;7.57;6.28;;;20.50;54.80;;;;;;5097420;28;20217;-84
2021/06/07 03:26:14;;;;;;;8.27;6.38;;;20.40;54.80;;;;;;5080231;28;20165;-85
2021/06/07 03:28:39;;;;;;;7.05;6.18;;;20.40;54.80;;;;;;5114122;28;20673;-84
2021/06/07 03:31:07;;;;;;;7.15;6.45;;;20.40;54.80;;;;;;5098322;28;20180;-84
2021/06/07 03:33:33;;;;;;;8.13;6.15;;;20.50;54.80;;;;;;5097692;28;20185;-83
2021/06/07 03:35:59;;;;;;;7.13;6.40;;;20.50;54.80;;;;;;5115056;28;20149;-84
2021/06/07 03:38:25;;;;;;;7.82;6.55;;;20.50;54.80;;;;;;5114124;28;20153;-84
2021/06/07 03:40:52;;;;;;;7.95;6.50;;;20.40;54.70;;;;;;5114407;28;20202;-85
2021/06/07 03:43:18;;;;;;;7.45;6.32;;;20.50;54.80;;;;;;5096818;28;20646;-85
2021/06/07 03:45:44;;;;;;;6.90;6.20;;;20.40;54.70;;;;;;5097727;28;20519;-83
2021/06/07 03:48:10;;;;;;;8.10;6.38;;;20.50;54.70;;;;;;5114447;28;20210;-85
2021/06/07 03:50:36;;;;;;;7.43;6.65;;;20.40;54.70;;;;;;5097147;28;20234;-83
2021/06/07 03:53:02;;;;;;;8.07;6.45;;;20.40;54.80;;;;;;5096853;28;20309;-84
2021/06/07 03:55:28;;;;;;;7.72;5.95;;;20.50;54.80;;;;;;5079828;28;20224;-83
2021/06/07 03:57:54;;;;;;;7.15;6.45;;;20.40;54.70;;;;;;5113894;28;20227;-85
2021/06/07 04:00:22;;;;;;;10.52;6.70;;;20.50;54.70;;;;;;5080344;28;20176;-85
2021/06/07 04:02:48;;;;;;;6.85;5.97;;;20.50;54.80;;;;;;5096879;28;20173;-85
2021/06/07 04:05:14;;;;;;;8.23;6.07;;;20.50;54.70;;;;;;5097301;28;20163;-85
2021/06/07 04:07:41;;;;;;;7.78;5.78;;;20.50;54.70;;;;;;5097228;28;20153;-85
2021/06/07 04:10:11;;;;;;;8.23;6.60;;;20.50;54.60;;;;;;5096869;28;20194;-84
2021/06/07 04:12:37;;;;;;;7.47;6.68;;;20.50;54.50;;;;;;5079776;28;20569;-85
2021/06/07 04:15:08;;;;;;;7.97;6.03;;;20.60;54.50;;;;;;5096718;28;20160;-84
2021/06/07 04:17:37;;;;;;;7.88;5.90;;;20.70;54.20;;;;;;5079141;28;20184;-84
2021/06/07 04:20:10;;;;;;;7.50;6.07;;;20.70;54.00;;;;;;5078860;28;20199;-84
2021/06/07 04:22:40;;;;;;;7.15;6.13;;;20.80;54.00;;;;;;5062478;28;20191;-85
2021/06/07 04:25:09;;;;;;;7.40;6.60;;;20.80;53.90;;;;;;5079105;28;20176;-84
2021/06/07 04:27:38;;;;;;;6.97;5.90;;;20.80;53.90;;;;;;5061116;28;20573;-85
2021/06/07 04:30:09;;;;;;;6.53;5.85;;;20.80;54.10;;;;;;5079242;28;20241;-82
2021/06/07 04:32:38;;;;;;;7.28;5.95;;;20.70;54.00;;;;;;5078836;28;20212;-85
2021/06/07 04:35:07;;;;;;;6.90;6.20;;;20.80;54.00;;;;;;5062919;28;20210;-84
2021/06/07 04:37:42;;;;;;;7.00;6.30;;;20.70;53.90;;;;;;5062821;28;20181;-85
2021/06/07 04:40:10;;;;;;;6.72;6.05;;;20.70;54.10;;;;;;5063520;28;20184;-84
2021/06/07 04:42:39;;;;;;;7.18;5.95;;;20.60;54.10;;;;;;5113658;28;20603;-85
2021/06/07 04:45:07;;;;;;;7.95;6.47;;;20.80;54.00;;;;;;5077962;28;20662;-85
2021/06/07 04:47:35;;;;;;;7.43;5.88;;;20.70;54.00;;;;;;5078465;28;20181;-85
2021/06/07 04:50:02;;;;;;;6.82;6.13;;;20.70;54.00;;;;;;5061119;28;20632;-84
2021/06/07 04:52:32;;;;;;;7.57;6.20;;;20.70;54.10;;;;;;5112979;28;20204;-84
2021/06/07 04:55:02;;;;;;;7.25;6.03;;;20.70;54.00;;;;;;5078184;28;20187;-85
2021/06/07 04:57:30;;;;;;;8.23;6.10;;;20.70;54.10;;;;;;5077740;28;20186;-85
2021/06/07 04:59:57;;;;;;;6.88;6.18;;;20.70;54.10;;;;;;5078305;28;20196;-84
2021/06/07 05:02:24;;;;;;;7.13;6.10;;;20.80;53.90;;;;;;5078426;28;20261;-84
2021/06/07 05:04:51;;;;;;;7.53;6.40;;;20.90;53.80;;;;;;5078038;28;20177;-85
2021/06/07 05:07:18;;;;;;;7.32;6.13;;;20.90;53.80;;;;;;5077908;28;20593;-83
2021/06/07 05:09:46;;;;;;;7.75;6.22;;;20.80;53.80;;;;;;5078198;28;20177;-85
2021/06/07 05:12:13;;;;;;;7.65;6.38;;;20.70;54.00;;;;;;5077740;28;20195;-84
2021/06/07 05:14:40;;;;;;;7.45;6.15;;;20.70;54.10;;;;;;5094232;28;20181;-85
2021/06/07 05:17:06;;;;;;;7.35;5.85;;;20.70;54.00;;;;;;5077405;28;20271;-83
2021/06/07 05:19:31;;;;;;;6.90;6.20;;;20.70;54.10;;;;;;5097436;28;20641;-85
2021/06/07 05:21:57;;;;;;;8.57;6.60;;;20.80;54.10;;;;;;5111640;28;20157;-84
2021/06/07 05:24:24;;;;;;;6.70;5.80;;;20.70;54.10;;;;;;5095744;28;20161;-84
2021/06/07 05:26:53;;;;;;;6.80;6.10;;;20.70;54.00;;;;;;5094349;28;20266;-83
2021/06/07 05:29:20;;;;;;;6.63;5.95;;;20.70;54.10;;;;;;5093734;28;20310;-84
2021/06/07 05:31:49;;;;;;;6.82;6.13;;;20.70;54.10;;;;;;5077676;28;20236;-84
2021/06/07 05:34:15;;;;;;;7.07;6.15;;;20.70;54.20;;;;;;5077474;28;20278;-83
2021/06/07 05:36:41;;;;;;;6.85;6.15;;;20.70;54.10;;;;;;5094924;28;20176;-85
2021/06/07 05:39:15;;;;;;;6.35;5.72;;;20.70;54.10;;;;;;5097242;28;20164;-84
2021/06/07 05:41:42;;;;;;;6.25;5.65;;;20.90;53.90;;;;;;5068370;28;20190;-86
2021/06/07 05:44:07;;;;;;;6.70;6.00;;;21.00;53.80;;;;;;5066227;28;20302;-84
2021/06/07 05:46:33;;;;;;;6.43;5.80;;;20.90;53.60;;;;;;5083208;28;20203;-83
2021/06/07 05:48:59;;;;;;;7.18;5.70;;;20.90;53.80;;;;;;5099951;28;20153;-83
2021/06/07 05:51:24;;;;;;;6.82;6.07;;;20.90;53.80;;;;;;5099783;28;20231;-82
2021/06/07 05:53:52;;;;;;;7.10;6.03;;;21.00;53.60;;;;;;5081641;28;20542;-81
2021/06/07 05:56:18;;;;;;;7.22;6.20;;;21.00;53.50;;;;;;5098276;28;20153;-81
2021/06/07 05:58:44;;;;;;;6.38;5.78;;;21.00;53.70;;;;;;5096954;28;20149;-82
2021/06/07 06:01:09;;;;;;;6.47;5.82;;;21.00;53.60;;;;;;5098197;28;20154;-82
2021/06/07 06:03:36;;;;;;;7.00;5.85;;;21.00;53.60;;;;;;5083782;28;20680;-81
2021/06/07 06:06:02;;;;;;;7.43;6.32;;;21.00;53.60;;;;;;5100015;28;20153;-83
2021/06/07 06:08:28;;;;;;;5.90;5.30;;;20.90;53.90;;;;;;5100485;28;20634;-82
2021/06/07 06:10:54;;;;;;;7.20;6.00;;;20.90;53.90;;;;;;5100813;28;20161;-81
2021/06/07 06:13:20;;;;;;;6.30;5.70;;;20.90;53.70;;;;;;5084868;28;20199;-83
2021/06/07 06:15:47;;;;;;;6.38;5.78;;;20.90;53.90;;;;;;5069026;28;20168;-83
2021/06/07 06:18:13;;;;;;;6.97;6.13;;;20.80;54.00;;;;;;5069313;28;20171;-83
2021/06/07 06:20:39;;;;;;;7.15;6.30;;;20.90;53.90;;;;;;5103124;28;20234;-83
2021/06/07 06:23:04;;;;;;;6.45;5.85;;;20.90;53.90;;;;;;5068315;28;20161;-83
2021/06/07 06:25:30;;;;;;;6.57;5.93;;;20.90;53.90;;;;;;5083312;28;20619;-84
2021/06/07 06:28:00;;;;;;;6.32;5.47;;;20.90;53.80;;;;;;5085685;28;20153;-84
2021/06/07 06:30:31;;;;;;;6.40;5.80;;;20.80;53.80;;;;;;5050826;28;20176;-83
2021/06/07 06:32:59;;;;;;;6.40;5.72;;;20.90;53.90;;;;;;5082786;28;20208;-84
2021/06/07 06:35:25;;;;;;;6.72;6.03;;;20.90;53.80;;;;;;5083996;28;20180;-84
2021/06/07 06:37:51;;;;;;;6.45;5.85;;;21.00;53.90;;;;;;5099556;28;20157;-84
2021/06/07 06:40:22;;;;;;;7.43;6.65;;;20.90;53.90;;;;;;5081142;28;20222;-84
2021/06/07 06:42:50;;;;;;;7.20;6.45;;;21.00;53.90;;;;;;5083399;28;20600;-84
2021/06/07 06:45:23;;;;;;;6.63;6.03;;;21.00;53.90;;;;;;5099113;28;20217;-84
2021/06/07 06:47:57;;;;;;;7.78;6.55;;;21.10;53.80;;;;;;5050069;28;20181;-84
2021/06/07 06:50:25;;;;;;;6.63;5.90;;;21.00;53.80;;;;;;5050868;28;20224;-81
2021/06/07 06:52:57;;;;;;;6.55;5.95;;;21.00;54.10;;;;;;5083716;28;20204;-82
2021/06/07 06:55:23;;;;;;;6.78;6.07;;;21.00;53.90;;;;;;5066337;28;20309;-82
2021/06/07 06:57:52;;;;;;;7.10;6.40;;;21.00;53.80;;;;;;5100790;28;20156;-83
2021/06/07 07:00:19;;;;;;;6.55;5.95;;;21.00;53.70;;;;;;5066685;28;20174;-82
2021/06/07 07:02:45;;;;;;;7.40;6.70;;;21.00;54.20;;;;;;5100783;28;20160;-84
2021/06/07 07:05:17;;;;;;;7.10;6.40;;;21.00;54.20;;;;;;5081473;28;20167;-82
2021/06/07 07:07:46;;;;;;;6.57;5.97;;;21.10;54.10;;;;;;5063559;28;20776;-83
2021/06/07 07:10:15;;;;;;;7.40;6.53;;;21.20;53.50;;;;;;5099216;28;20160;-83
2021/06/07 07:12:40;;;;;;;7.10;6.40;;;21.30;53.60;;;;;;5063731;28;20240;-82
2021/06/07 07:15:06;;;;;;;8.05;6.68;;;21.20;53.10;;;;;;5080238;28;20163;-81
2021/06/07 07:17:34;;;;;;;8.05;6.65;;;21.20;53.70;;;;;;5080744;28;20163;-83
2021/06/07 07:20:00;;;;;;;7.20;6.18;;;21.10;53.90;;;;;;5079628;28;20224;-81
2021/06/07 07:22:30;;;;;;;7.60;5.93;;;21.10;53.60;;;;;;5096624;28;20246;-81
2021/06/07 07:24:56;;;;;;;6.70;6.10;;;21.20;53.50;;;;;;5082357;28;20181;-82
2021/06/07 07:27:23;;;;;;;6.72;6.13;;;21.20;53.60;;;;;;5100294;28;20600;-81
2021/06/07 07:29:54;;;;;;;7.20;6.50;;;21.10;53.50;;;;;;5100370;28;20165;-82
2021/06/07 07:32:24;;;;;;;7.10;6.25;;;21.20;53.60;;;;;;5082763;28;20653;-82
2021/06/07 07:34:54;;;;;;;6.35;5.75;;;21.20;53.70;;;;;;5100146;28;20165;-82
2021/06/07 07:37:20;;;;;;;6.95;6.25;;;21.20;53.60;;;;;;5065484;28;20184;-82
2021/06/07 07:39:48;;;;;;;7.45;6.75;;;21.20;53.70;;;;;;5100089;28;20238;-81
2021/06/07 07:42:14;;;;;;;6.78;6.07;;;21.10;53.80;;;;;;5100273;28;20195;-82
2021/06/07 07:44:43;;;;;;;8.65;6.35;;;21.30;53.50;;;;;;5098137;28;20157;-82
2021/06/07 07:47:09;;;;;;;6.85;6.15;;;21.30;53.50;;;;;;5064919;28;20177;-82
2021/06/07 07:49:35;;;;;;;6.80;6.20;;;21.30;53.70;;;;;;5099677;28;20243;-81
2021/06/07 07:52:02;;;;;;;6.97;6.30;;;21.30;53.80;;;;;;5100215;28;20227;-82
2021/06/07 07:54:28;;;;;;;9.40;6.22;;;21.40;53.50;;;;;;5101094;28;20204;-81
2021/06/07 07:56:54;;;;;;;11.63;6.32;;;21.30;53.80;;;;;;5100810;28;20152;-81
2021/06/07 07:59:25;;;;;;;12.15;6.75;;;21.30;53.40;;;;;;5102340;28;20171;-81
2021/06/07 08:01:50;;;;;;;15.13;6.63;;;21.30;53.70;;;;;;5082040;28;20248;-83
2021/06/07 08:04:16;;;;;;;16.65;6.85;;;21.20;53.70;;;;;;5099203;28;20200;-83
2021/06/07 08:06:44;;;;;;;22.75;7.28;;;21.20;54.20;;;;;;5082516;28;20188;-80
2021/06/07 08:09:10;;;;;;;26.50;7.18;;;21.30;54.00;;;;;;5101189;28;20623;-82
2021/06/07 08:11:44;;;;;;;24.73;7.50;;;21.30;54.20;;;;;;5101022;28;20151;-81
2021/06/07 08:14:17;;;;;;;24.23;7.28;;;21.20;53.90;;;;;;5098879;28;20220;-81
2021/06/07 08:16:49;;;;;;;16.52;6.90;;;21.30;54.10;;;;;;5064828;28;20180;-81
2021/06/07 08:19:22;;;;;;;17.35;7.40;;;21.30;54.10;;;;;;5048695;28;20172;-82
2021/06/07 08:21:57;;;;;;;13.48;7.05;;;21.30;53.90;;;;;;5083222;28;20279;-81
2021/06/07 08:24:27;;;;;;;19.58;6.90;;;21.30;53.80;;;;;;5083482;28;20184;-81
2021/06/07 08:26:58;;;;;;;15.15;7.20;;;21.40;53.80;;;;;;5081553;28;20204;-82
2021/06/07 08:29:28;;;;;;;12.10;7.38;;;21.40;54.10;;;;;;5066396;28;20267;-82
2021/06/07 08:31:58;;;;;;;17.13;6.90;;;21.50;54.10;;;;;;5063871;28;20191;-80
2021/06/07 08:34:32;;;;;;;11.82;7.07;;;21.50;54.10;;;;;;5102829;28;20215;-82
2021/06/07 08:37:02;;;;;;;16.25;6.82;;;21.40;53.70;;;;;;5121142;28;20190;-84
2021/06/07 08:39:34;;;;;;;13.50;7.18;;;21.50;53.70;;;;;;5085713;28;20176;-82
2021/06/07 08:42:01;;;;;;;18.45;7.78;;;21.50;54.00;;;;;;5103345;28;20689;-84
2021/06/07 08:44:29;;;;;;;17.73;8.00;;;21.50;53.80;;;;;;5102086;28;20175;-84
2021/06/07 08:46:59;;;;;;;17.50;7.63;;;21.40;53.90;;;;;;5118068;28;20175;-83
2021/06/07 08:49:32;;;;;;;16.48;6.93;;;21.40;54.10;;;;;;5101203;28;20187;-83
2021/06/07 08:52:48;;;;;;;10.68;6.72;;;21.40;54.10;;;;;;5060651;28;20221;-83
2021/06/07 08:55:15;;;;;;;12.45;7.35;;;21.30;54.00;;;;;;5057867;28;20247;-81
2021/06/07 08:57:49;;;;;;;14.52;7.38;;;21.30;54.10;;;;;;5063387;28;20167;-81
2021/06/07 09:00:23;;;;;;;14.02;7.22;;;21.30;54.30;;;;;;5057256;28;20617;-81
2021/06/07 09:02:49;;;;;;;11.60;7.60;;;21.30;54.30;;;;;;5041888;28;20190;-81
2021/06/07 09:05:17;;;;;;;10.93;7.38;;;21.50;54.10;;;;;;5076167;28;20273;-82
2021/06/07 09:07:55;;;;;;;12.90;7.60;;;21.60;54.00;;;;;;5059834;28;20188;-82
2021/06/07 09:10:26;;;;;;;15.52;7.72;;;21.60;53.90;;;;;;5059926;28;20675;-82
2021/06/07 09:12:54;;;;;;;13.90;7.70;;;21.60;54.00;;;;;;5043812;28;20213;-81
2021/06/07 09:15:41;;;;;;;12.52;7.75;;;21.70;53.90;;;;;;5079655;28;20158;-81
2021/06/07 09:18:12;;;;;;;15.50;7.78;;;21.60;53.80;;;;;;5063101;28;20208;-81
2021/06/07 09:20:43;;;;;;;15.02;8.27;;;21.60;53.90;;;;;;5063703;28;20246;-82
2021/06/07 09:23:16;;;;;;;12.85;8.23;;;21.70;53.90;;;;;;5096054;28;20196;-81
2021/06/07 09:25:44;;;;;;;13.80;8.02;;;21.70;53.80;;;;;;5070705;28;20184;-81
2021/06/07 09:28:18;;;;;;;15.65;9.10;;;21.70;54.00;;;;;;5102595;28;20153;-80
2021/06/07 09:31:00;;;;;;;11.60;8.23;;;21.70;53.80;;;;;;5099571;28;20161;-81
2021/06/07 09:33:39;;;;;;;16.95;8.90;;;21.60;53.90;;;;;;5097914;28;20189;-81
2021/06/07 09:36:27;;;;;;;17.10;8.65;;;21.50;54.10;;;;;;5096004;28;20161;-79
2021/06/07 09:39:23;;;;;;;18.25;9.43;;;21.60;54.10;;;;;;5077359;28;20424;-81
2021/06/07 09:42:13;;;;;;;20.90;9.35;;;21.70;53.90;;;;;;5076476;28;20162;-80
2021/06/07 09:44:51;;;;;;;13.95;9.27;;;21.60;54.10;;;;;;5044681;28;20310;-80
2021/06/07 09:47:22;;;;;;;18.48;9.02;;;21.70;54.00;;;;;;5078187;28;20161;-80
2021/06/07 09:50:04;;;;;;;22.67;9.25;;;21.70;53.80;;;;;;5060142;28;20161;-80
2021/06/07 09:52:53;;;;;;;16.92;8.90;;;21.80;53.80;;;;;;5060806;28;22453;-80
2021/06/07 09:55:22;;;;;;;15.80;8.77;;;21.80;53.80;;;;;;5080105;28;20197;-80
2021/06/07 09:57:50;;;;;;;14.80;8.63;;;21.90;53.70;;;;;;5079723;28;20154;-80
2021/06/07 10:00:48;;;;;;;15.50;9.23;;;21.90;53.50;;;;;;5062423;28;20261;-80
2021/06/07 10:03:25;;;;;;;16.23;9.18;;;21.80;53.60;;;;;;5077417;28;20212;-79
2021/06/07 10:06:00;;;;;;;20.63;9.65;;;21.90;53.90;;;;;;5077170;28;20253;-80
2021/06/07 10:08:39;;;;;;;17.60;9.13;;;21.90;53.60;;;;;;5076343;28;20215;-80
2021/06/07 10:11:14;;;;;;;19.45;9.48;;;21.90;53.60;;;;;;5079723;28;20172;-80
2021/06/07 10:13:40;;;;;;;20.88;9.68;;;21.90;53.60;;;;;;5082164;28;20199;-80
2021/06/07 10:16:09;;;;;;;14.18;9.45;;;22.00;53.60;;;;;;5067597;28;20195;-80
2021/06/07 10:18:35;;;;;;;17.30;9.23;;;22.00;53.60;;;;;;5066563;28;20165;-80
2021/06/07 10:21:00;;;;;;;20.10;9.65;;;21.90;53.60;;;;;;5082961;28;20157;-79
2021/06/07 10:23:29;;;;;;;18.33;9.90;;;21.90;53.70;;;;;;5074590;28;20565;-80
2021/06/07 10:25:58;;;;;;;17.25;10.23;;;21.80;54.60;;;;;;5083747;28;20639;-79
2021/06/07 10:28:35;;;;;;;16.65;9.68;;;21.90;54.10;;;;;;5101719;28;20252;-81
2021/06/07 10:31:17;;;;;;;16.92;9.57;;;22.00;54.00;;;;;;5081595;28;20230;-79
2021/06/07 10:33:54;;;;;;;15.07;9.55;;;21.90;53.90;;;;;;5077073;28;20208;-84
2021/06/07 10:36:25;;;;;;;24.92;10.60;;;22.00;54.00;;;;;;5081465;28;20233;-86
2021/06/07 10:38:54;;;;;;;15.07;8.90;;;21.90;53.60;;;;;;5097998;28;20177;-86
2021/06/07 10:41:24;;;;;;;18.77;9.50;;;22.00;53.70;;;;;;5095181;28;20156;-83
2021/06/07 10:43:52;;;;;;;18.42;9.95;;;22.00;53.60;;;;;;5096503;28;20181;-87
2021/06/07 10:46:32;;;;;;;14.38;9.00;;;22.00;53.50;;;;;;5080322;28;20164;-86
2021/06/07 10:48:59;;;;;;;18.58;9.23;;;22.00;53.40;;;;;;5097784;28;20549;-85
2021/06/07 10:51:27;;;;;;;17.33;9.48;;;22.10;53.50;;;;;;5094441;28;20216;-84
2021/06/07 10:53:54;;;;;;;16.58;9.63;;;22.00;53.50;;;;;;5099059;28;20200;-83
2021/06/07 10:56:27;;;;;;;20.48;9.55;;;22.00;53.50;;;;;;5119003;28;20177;-84
2021/06/07 10:58:59;;;;;;;15.93;9.60;;;22.00;53.50;;;;;;5083752;28;20592;-88
2021/06/07 11:01:56;;;;;;;16.80;9.50;;;22.10;53.40;;;;;;5048920;28;20187;-89
2021/06/07 11:04:41;;;;;;;13.77;9.68;;;22.10;53.20;;;;;;5082838;28;20188;-88
2021/06/07 11:07:21;;;;;;;17.10;10.43;;;22.10;53.20;;;;;;5079556;28;20172;-85
2021/06/07 11:10:23;;;;;;;16.02;9.52;;;22.20;53.30;;;;;;5066207;28;20186;-88
2021/06/07 11:13:11;;;;;;;15.25;9.68;;;22.10;53.10;;;;;;5075924;28;20210;-84
2021/06/07 11:15:42;;;;;;;17.08;9.98;;;22.10;53.10;;;;;;5096500;28;20164;-87
2021/06/07 11:18:23;;;;;;;14.55;10.07;;;22.00;53.00;;;;;;5063926;28;20173;-89
2021/06/07 11:21:00;;;;;;;12.90;9.30;;;22.10;53.20;;;;;;5076628;28;20169;-87
2021/06/07 11:23:34;;;;;;;14.18;9.35;;;22.20;52.60;;;;;;5061311;28;20206;-86
2021/06/07 11:26:02;;;;;;;14.70;9.73;;;22.40;52.20;;;;;;5086771;28;20150;-86
2021/06/07 11:28:47;;;;;;;14.70;9.00;;;22.40;52.30;;;;;;5049911;28;20169;-87
2021/06/07 11:31:37;;;;;;;14.80;9.52;;;22.40;52.20;;;;;;5036617;28;20193;-87
2021/06/07 11:34:05;;;;;;;17.02;9.85;;;22.40;52.20;;;;;;5014508;28;20601;-88
2021/06/07 11:37:05;;;;;;;11.85;9.85;;;22.40;52.00;;;;;;5035983;28;20170;-87
2021/06/07 11:39:47;;;;;;;13.80;9.65;;;22.40;52.20;;;;;;5031532;28;20183;-86
2021/06/07 11:42:21;;;;;;;17.40;9.18;;;22.40;52.20;;;;;;5015318;28;20171;-85
2021/06/07 11:44:51;;;;;;;13.60;8.77;;;22.40;52.10;;;;;;5033220;28;20178;-80
2021/06/07 11:47:40;;;;;;;12.50;9.20;;;22.40;52.00;;;;;;5015886;28;20163;-81
2021/06/07 11:50:29;;;;;;;13.27;9.75;;;22.50;51.50;;;;;;5034876;28;20201;-81
2021/06/07 11:53:13;;;;;;;15.23;9.90;;;22.40;52.00;;;;;;5038698;28;20226;-81
2021/06/07 11:55:38;;;;;;;11.55;9.02;;;22.40;51.90;;;;;;5037030;28;20170;-81
2021/06/07 11:58:14;;;;;;;14.38;8.85;;;22.30;51.40;;;;;;5035799;28;20610;-81
2021/06/07 12:00:42;;;;;;;14.07;9.45;;;22.40;51.70;;;;;;5037152;28;20293;-81
2021/06/07 12:03:16;;;;;;;12.73;9.30;;;22.40;51.90;;;;;;5074604;28;20303;-84
2021/06/07 12:05:42;;;;;;;12.93;9.07;;;22.30;51.60;;;;;;5048274;28;20278;-81
2021/06/07 12:08:09;;;;;;;11.73;9.32;;;22.30;50.90;;;;;;5079800;28;20201;-82
2021/06/07 12:10:36;;;;;;;13.48;10.40;;;22.40;51.30;;;;;;5073216;28;20257;-81
2021/06/07 12:13:22;;;;;;;10.57;8.93;;;22.40;51.70;;;;;;5038487;28;20213;-81
2021/06/07 12:15:55;;;;;;;15.38;9.18;;;22.40;51.60;;;;;;5092454;28;20267;-82
2021/06/07 12:18:40;;;;;;;11.75;9.30;;;22.30;51.90;;;;;;5103533;28;20194;-82
2021/06/07 12:21:13;;;;;;;12.95;9.30;;;22.30;51.80;;;;;;5085728;28;20512;-81
2021/06/07 12:23:44;;;;;;;11.98;8.90;;;22.30;51.50;;;;;;5101994;28;20176;-80
2021/06/07 12:29:21;;;;;;;12.45;9.02;;;22.30;51.20;;;;;;5102892;28;20668;-81
2021/06/07 12:32:23;;;;;;;11.82;9.15;;;22.20;52.20;;;;;;5104198;28;20614;-82
2021/06/07 12:35:01;;;;;;;10.88;8.63;;;22.30;50.70;;;;;;5067921;28;20255;-81
2021/06/07 12:37:29;;;;;;;11.38;8.77;;;22.30;51.40;;;;;;5101613;28;20174;-80
2021/06/07 12:40:13;;;;;;;11.23;9.18;;;22.30;51.30;;;;;;5103683;28;20174;-81
2021/06/07 12:42:39;;;;;;;11.52;8.80;;;22.30;51.30;;;;;;5102223;28;20160;-81
2021/06/07 12:45:09;;;;;;;13.32;9.15;;;22.30;51.20;;;;;;5103399;28;20161;-80
2021/06/07 12:47:35;;;;;;;9.65;8.65;;;22.30;51.00;;;;;;5104790;28;20156;-80
2021/06/07 12:50:20;;;;;;;11.30;9.52;;;22.30;51.90;;;;;;5105066;28;20153;-80
2021/06/07 12:52:51;;;;;;;11.18;9.20;;;22.20;52.00;;;;;;5075377;28;20206;-79
2021/06/07 12:55:23;;;;;;;10.07;9.05;;;22.20;52.10;;;;;;5090898;28;20200;-81
2021/06/07 12:57:50;;;;;;;10.60;8.77;;;22.10;52.10;;;;;;5090172;28;20177;-81
2021/06/07 13:00:31;;;;;;;17.88;9.30;;;22.20;52.10;;;;;;5109311;28;20149;-81
2021/06/07 13:02:58;;;;;;;14.23;9.20;;;22.20;52.00;;;;;;5090107;28;20172;-81